Time;durP1;ratioP1;P1;durP2;ratioP2;P2;SDS_P1;SDS_P2;PMS_P1;PMS_P2;Temp;Humidity;BMP_temperature;BMP_pressure;BME280_temperature;BME280_humidity;BME280_pressure;Samples;Min_cycle;Max_cycle;Signal;HPM_P1;HPM_P2
2022/03/23 00:01:41;;;;;;;43.00;26.52;;;6.60;99.90;;;;;;5052823;28;20041;-69
2022/03/23 00:04:07;;;;;;;43.95;27.40;;;6.70;99.90;;;;;;5053881;28;20497;-69
2022/03/23 00:06:33;;;;;;;45.40;27.85;;;6.60;99.90;;;;;;5051273;28;20048;-69
2022/03/23 00:09:00;;;;;;;52.60;30.90;;;6.70;99.90;;;;;;5052478;28;20120;-69
2022/03/23 00:11:26;;;;;;;42.75;26.63;;;6.60;99.90;;;;;;5052276;28;20178;-69
2022/03/23 00:13:52;;;;;;;42.42;27.70;;;6.60;99.90;;;;;;5035682;28;20124;-69
2022/03/23 00:16:18;;;;;;;34.60;23.05;;;6.60;99.90;;;;;;5068939;28;20049;-69
2022/03/23 00:18:44;;;;;;;35.53;21.83;;;6.60;99.90;;;;;;5084730;28;20080;-69
2022/03/23 00:21:09;;;;;;;48.90;27.85;;;6.60;99.90;;;;;;5085814;28;20073;-69
2022/03/23 00:23:35;;;;;;;35.30;23.25;;;6.50;99.90;;;;;;5052066;28;20057;-69
2022/03/23 00:26:02;;;;;;;44.42;27.15;;;6.60;99.90;;;;;;5051982;28;20099;-69
2022/03/23 00:28:28;;;;;;;40.72;24.73;;;6.50;99.90;;;;;;5052087;28;20041;-69
2022/03/23 00:30:54;;;;;;;41.85;25.48;;;6.50;99.90;;;;;;5085625;28;20045;-69
2022/03/23 00:33:21;;;;;;;43.88;29.63;;;6.50;99.90;;;;;;5053390;28;20049;-69
2022/03/23 00:35:48;;;;;;;52.10;30.08;;;6.50;99.90;;;;;;5083464;28;20047;-69
2022/03/23 00:38:15;;;;;;;49.95;30.33;;;6.50;99.90;;;;;;5053167;28;20033;-69
2022/03/23 00:40:43;;;;;;;63.08;35.17;;;6.50;99.90;;;;;;5053077;28;20072;-69
2022/03/23 00:43:09;;;;;;;59.97;33.85;;;6.50;99.90;;;;;;5052229;28;20045;-69
2022/03/23 00:45:35;;;;;;;62.42;37.42;;;6.50;99.90;;;;;;5053164;28;20037;-69
2022/03/23 00:48:02;;;;;;;58.95;36.47;;;6.50;99.90;;;;;;5085236;28;20478;-69
2022/03/23 00:50:28;;;;;;;57.65;35.15;;;6.50;99.90;;;;;;5052932;28;20080;-69
2022/03/23 00:52:53;;;;;;;61.35;36.15;;;6.50;99.90;;;;;;5084966;28;20080;-69
2022/03/23 00:55:19;;;;;;;60.47;34.55;;;6.50;99.90;;;;;;5051629;28;20044;-69
2022/03/23 00:57:45;;;;;;;62.72;36.85;;;6.50;99.90;;;;;;5052948;28;20087;-69
2022/03/23 01:00:16;;;;;;;62.03;37.80;;;6.50;99.90;;;;;;5051541;28;20033;-69
2022/03/23 01:02:43;;;;;;;64.32;38.78;;;6.40;99.90;;;;;;5085214;28;20083;-69
2022/03/23 01:05:10;;;;;;;64.05;39.72;;;6.40;99.90;;;;;;5050313;28;20071;-69
2022/03/23 01:07:36;;;;;;;64.72;39.17;;;6.40;99.90;;;;;;5052529;28;20049;-69
2022/03/23 01:10:07;;;;;;;63.42;39.25;;;6.40;99.90;;;;;;5085130;28;20440;-69
2022/03/23 01:12:34;;;;;;;65.95;39.15;;;6.40;99.90;;;;;;5045827;28;20115;-69
2022/03/23 01:15:00;;;;;;;64.25;39.35;;;6.40;99.90;;;;;;5031610;28;20453;-69
2022/03/23 01:17:26;;;;;;;59.92;34.90;;;6.40;99.90;;;;;;5064778;28;20042;-69
2022/03/23 01:19:52;;;;;;;62.97;37.90;;;6.40;99.90;;;;;;5032586;28;20528;-69
2022/03/23 01:22:18;;;;;;;68.97;41.25;;;6.30;99.90;;;;;;5030888;28;20116;-69
2022/03/23 01:24:44;;;;;;;74.82;45.05;;;6.30;99.90;;;;;;5031424;28;20048;-69
2022/03/23 01:27:10;;;;;;;83.85;46.40;;;6.40;99.90;;;;;;5047614;28;20123;-69
2022/03/23 01:29:36;;;;;;;76.45;42.63;;;6.30;99.90;;;;;;5030831;28;20129;-69
2022/03/23 01:32:03;;;;;;;74.30;42.17;;;6.40;99.90;;;;;;5032168;28;20052;-69
2022/03/23 01:34:29;;;;;;;73.82;44.47;;;6.40;99.90;;;;;;5028656;28;20033;-69
2022/03/23 01:36:55;;;;;;;66.47;40.28;;;6.40;99.90;;;;;;5032065;28;20088;-69
2022/03/23 01:39:21;;;;;;;74.93;43.35;;;6.40;99.90;;;;;;5032189;28;20045;-69
2022/03/23 01:41:47;;;;;;;66.13;37.40;;;6.30;99.90;;;;;;5032264;28;20041;-69
2022/03/23 01:44:17;;;;;;;68.15;38.28;;;6.30;99.90;;;;;;5030813;28;20049;-69
2022/03/23 01:47:03;;;;;;;57.85;35.97;;;6.30;99.90;;;;;;5032541;28;20468;-69
2022/03/23 01:49:29;;;;;;;70.85;41.92;;;6.30;99.90;;;;;;5030749;28;20045;-69
2022/03/23 01:51:56;;;;;;;66.63;40.00;;;6.30;99.90;;;;;;5032082;28;20053;-69
2022/03/23 01:54:21;;;;;;;40.38;24.38;;;6.20;99.90;;;;;;5030710;28;20079;-69
2022/03/23 01:56:50;;;;;;;53.28;33.47;;;6.20;99.90;;;;;;5031869;28;20065;-69
2022/03/23 01:59:17;;;;;;;41.40;23.38;;;6.20;99.90;;;;;;5030785;28;20052;-69
2022/03/23 02:01:43;;;;;;;56.90;34.53;;;6.10;99.90;;;;;;5031897;28;20106;-69
2022/03/23 02:04:09;;;;;;;68.53;40.78;;;6.00;99.90;;;;;;5030534;28;20037;-69
2022/03/23 02:06:36;;;;;;;80.05;44.40;;;5.90;99.90;;;;;;5029651;28;20041;-69
2022/03/23 02:09:02;;;;;;;74.47;43.33;;;6.00;99.90;;;;;;5030490;28;20057;-69
2022/03/23 02:11:32;;;;;;;70.00;42.33;;;5.90;99.90;;;;;;5030632;28;20107;-69
2022/03/23 02:13:59;;;;;;;74.20;43.60;;;5.90;99.90;;;;;;5048982;28;20033;-69
2022/03/23 02:16:25;;;;;;;77.60;45.15;;;5.80;99.90;;;;;;5050390;28;20041;-69
2022/03/23 02:18:50;;;;;;;75.82;44.28;;;5.80;99.90;;;;;;5083923;28;20037;-69
2022/03/23 02:21:16;;;;;;;87.30;47.55;;;5.70;99.90;;;;;;5051794;28;20116;-69
2022/03/23 02:23:42;;;;;;;86.38;48.55;;;5.70;99.90;;;;;;5050104;28;20136;-69
2022/03/23 02:26:09;;;;;;;95.90;49.40;;;5.70;99.90;;;;;;5083897;28;20037;-69
2022/03/23 02:28:39;;;;;;;86.75;49.75;;;5.80;99.90;;;;;;5050229;28;20094;-69
2022/03/23 02:31:07;;;;;;;94.10;51.70;;;5.80;99.90;;;;;;5083962;28;20413;-69
2022/03/23 02:33:32;;;;;;;90.28;48.47;;;5.80;99.90;;;;;;5051676;28;20037;-69
2022/03/23 02:35:59;;;;;;;87.78;49.28;;;5.80;99.90;;;;;;5049082;28;20416;-69
2022/03/23 02:38:25;;;;;;;88.20;48.22;;;5.80;99.90;;;;;;5050118;28;20044;-69
2022/03/23 02:40:50;;;;;;;89.72;48.63;;;5.90;99.90;;;;;;5084891;28;20047;-69
2022/03/23 02:43:16;;;;;;;91.82;50.05;;;5.80;99.90;;;;;;5055258;28;20052;-69
2022/03/23 02:45:42;;;;;;;83.45;49.05;;;5.80;99.90;;;;;;5055326;28;20037;-69
2022/03/23 02:48:09;;;;;;;92.38;50.55;;;5.80;99.90;;;;;;5087821;28;20120;-69
2022/03/23 02:50:35;;;;;;;98.63;51.30;;;5.80;99.90;;;;;;5055236;28;20528;-69
2022/03/23 03:01:59;;;;;;;82.38;44.33;;;5.80;99.90;;;;;;5054051;28;20409;-69
2022/03/23 03:04:25;;;;;;;86.93;47.28;;;5.70;99.90;;;;;;5052686;28;20048;-69
2022/03/23 03:06:51;;;;;;;86.78;48.47;;;5.60;99.90;;;;;;5054812;28;20048;-69
2022/03/23 03:09:17;;;;;;;88.45;47.33;;;5.60;99.90;;;;;;5070180;28;20222;-69
2022/03/23 03:11:44;;;;;;;80.68;44.50;;;5.60;99.90;;;;;;5087602;28;20071;-69
2022/03/23 03:14:13;;;;;;;73.70;43.38;;;5.60;99.90;;;;;;5034751;28;20053;-69
2022/03/23 03:16:39;;;;;;;70.95;39.10;;;5.50;99.90;;;;;;5033523;28;20045;-69
2022/03/23 03:19:07;;;;;;;76.82;44.22;;;5.50;99.90;;;;;;5016860;28;20231;-69
2022/03/23 03:21:33;;;;;;;84.72;47.28;;;5.50;99.90;;;;;;5034887;28;20067;-69
2022/03/23 03:23:58;;;;;;;79.90;46.08;;;5.50;99.90;;;;;;5033246;28;20057;-69
2022/03/23 03:26:24;;;;;;;72.90;41.40;;;5.40;99.90;;;;;;5034789;28;20087;-69
2022/03/23 03:28:50;;;;;;;64.85;37.97;;;5.40;99.90;;;;;;5034667;28;20041;-69
2022/03/23 03:31:16;;;;;;;69.40;41.70;;;5.40;99.90;;;;;;5034530;28;20041;-69
2022/03/23 03:33:43;;;;;;;73.07;42.22;;;5.40;99.90;;;;;;5033401;28;20397;-69
2022/03/23 03:36:09;;;;;;;73.30;42.50;;;5.40;99.90;;;;;;5064334;28;20042;-69
2022/03/23 03:38:36;;;;;;;72.93;41.55;;;5.30;99.90;;;;;;5033284;28;20079;-69
2022/03/23 03:41:03;;;;;;;65.78;37.67;;;5.30;99.90;;;;;;5033257;28;20050;-69
2022/03/23 03:43:31;;;;;;;68.00;37.15;;;5.20;99.90;;;;;;5016713;28;20394;-69
2022/03/23 03:46:00;;;;;;;60.47;35.78;;;5.20;99.90;;;;;;5033298;28;20040;-68
2022/03/23 03:48:26;;;;;;;71.65;39.92;;;5.10;99.90;;;;;;5033061;28;20532;-69
2022/03/23 03:50:52;;;;;;;73.28;40.47;;;5.10;99.90;;;;;;5016666;28;20108;-69
2022/03/23 03:53:17;;;;;;;80.45;43.70;;;5.10;99.90;;;;;;5033996;28;20064;-69
2022/03/23 03:55:43;;;;;;;75.75;41.08;;;5.00;99.90;;;;;;5034148;28;20099;-69
2022/03/23 03:58:12;;;;;;;89.10;48.03;;;5.00;99.90;;;;;;5066247;28;20033;-69
2022/03/23 04:00:38;;;;;;;92.30;49.20;;;5.00;99.90;;;;;;5066278;28;20375;-69
2022/03/23 04:03:05;;;;;;;103.88;57.05;;;5.10;99.90;;;;;;5066176;28;20568;-69
2022/03/23 04:05:31;;;;;;;107.45;54.50;;;5.10;99.90;;;;;;5063539;28;20045;-69
2022/03/23 04:07:57;;;;;;;94.90;51.85;;;5.10;99.90;;;;;;5033810;28;20045;-69
2022/03/23 04:10:26;;;;;;;108.32;55.78;;;5.10;99.90;;;;;;5033670;28;20068;-69
2022/03/23 04:12:52;;;;;;;103.30;54.90;;;5.10;99.90;;;;;;5075041;28;20044;-69
2022/03/23 04:15:21;;;;;;;106.03;54.83;;;5.10;99.90;;;;;;5086206;28;20036;-69
2022/03/23 04:17:48;;;;;;;110.18;56.72;;;5.10;99.90;;;;;;5053526;28;20044;-69
2022/03/23 04:20:14;;;;;;;110.85;56.35;;;5.10;99.90;;;;;;5052308;28;20091;-69
2022/03/23 04:22:40;;;;;;;106.18;54.28;;;5.10;99.90;;;;;;5052109;28;20053;-69
2022/03/23 04:25:08;;;;;;;103.32;51.85;;;5.10;99.90;;;;;;5085866;28;20055;-69
2022/03/23 04:27:34;;;;;;;99.30;51.92;;;5.00;99.90;;;;;;5085997;28;20048;-69
2022/03/23 04:30:01;;;;;;;100.07;50.08;;;5.00;99.90;;;;;;5085476;28;20037;-69
2022/03/23 04:32:27;;;;;;;99.82;50.58;;;4.90;99.90;;;;;;5085675;28;20475;-69
2022/03/23 04:34:53;;;;;;;86.10;46.63;;;4.90;99.90;;;;;;5083056;28;20127;-69
2022/03/23 04:37:18;;;;;;;98.88;51.85;;;4.90;99.90;;;;;;5085472;28;20037;-69
2022/03/23 04:39:44;;;;;;;104.80;55.20;;;4.80;99.90;;;;;;5085510;28;20128;-69
2022/03/23 04:42:10;;;;;;;108.25;53.75;;;4.80;99.90;;;;;;5085682;28;20048;-69
2022/03/23 04:44:36;;;;;;;119.05;58.95;;;4.80;99.90;;;;;;5085503;28;20044;-69
2022/03/23 04:47:02;;;;;;;107.00;57.03;;;4.80;99.90;;;;;;5053288;28;20370;-69
2022/03/23 04:49:27;;;;;;;128.15;60.00;;;4.80;99.90;;;;;;5051874;28;20402;-69
2022/03/23 04:51:53;;;;;;;124.15;58.70;;;4.80;99.90;;;;;;5085505;28;20048;-69
2022/03/23 04:54:19;;;;;;;135.90;63.17;;;4.80;99.90;;;;;;5085133;28;20041;-69
2022/03/23 04:56:45;;;;;;;136.95;65.00;;;4.80;99.90;;;;;;5068658;28;20079;-69
2022/03/23 04:59:11;;;;;;;117.07;61.30;;;4.80;99.90;;;;;;5052677;28;20595;-69
2022/03/23 05:01:36;;;;;;;110.53;56.70;;;4.80;99.90;;;;;;5052980;28;20029;-69
2022/03/23 05:04:02;;;;;;;96.22;56.22;;;4.80;99.90;;;;;;5052051;28;20612;-69
2022/03/23 05:06:28;;;;;;;105.63;58.05;;;4.80;99.90;;;;;;5032548;28;20041;-69
2022/03/23 05:08:54;;;;;;;92.22;52.22;;;4.70;99.90;;;;;;5052730;28;20492;-69
2022/03/23 05:11:19;;;;;;;105.38;55.55;;;4.70;99.90;;;;;;5051173;28;20045;-69
2022/03/23 05:13:45;;;;;;;58.20;29.27;;;4.70;99.90;;;;;;5034638;28;20103;-69
2022/03/23 05:16:11;;;;;;;79.25;41.63;;;4.60;99.90;;;;;;5031156;28;20049;-69
2022/03/23 05:18:37;;;;;;;50.83;28.08;;;4.60;99.90;;;;;;5032451;28;20038;-69
2022/03/23 05:21:03;;;;;;;57.90;31.95;;;4.50;99.90;;;;;;5031316;28;20049;-69
2022/03/23 05:23:28;;;;;;;49.15;28.92;;;4.40;99.90;;;;;;5031199;28;20056;-69
2022/03/23 05:25:54;;;;;;;40.50;26.33;;;4.40;99.90;;;;;;5031268;28;20493;-69
2022/03/23 05:28:20;;;;;;;55.13;33.03;;;4.30;99.90;;;;;;5031033;28;20485;-69
2022/03/23 05:30:46;;;;;;;66.57;39.15;;;4.30;99.90;;;;;;5030911;28;20049;-69
2022/03/23 05:33:12;;;;;;;95.75;49.17;;;4.30;99.90;;;;;;5064368;28;20049;-69
2022/03/23 05:35:38;;;;;;;102.97;52.83;;;4.30;99.90;;;;;;5028608;28;20037;-69
2022/03/23 05:38:03;;;;;;;101.40;53.10;;;4.40;99.90;;;;;;5030961;28;20042;-69
2022/03/23 05:40:29;;;;;;;111.43;54.42;;;4.40;99.90;;;;;;5031049;28;20041;-69
2022/03/23 05:42:55;;;;;;;71.78;38.28;;;4.40;99.90;;;;;;5032098;28;20124;-69
2022/03/23 05:45:21;;;;;;;50.20;31.58;;;4.40;99.90;;;;;;5032233;28;20049;-69
2022/03/23 05:47:48;;;;;;;55.03;31.27;;;4.40;99.90;;;;;;5030808;28;20041;-69
2022/03/23 05:50:14;;;;;;;55.38;32.25;;;4.30;99.90;;;;;;5063966;28;20045;-69
2022/03/23 05:52:40;;;;;;;65.40;37.50;;;4.30;99.90;;;;;;5032044;28;20052;-69
2022/03/23 05:55:07;;;;;;;60.80;36.13;;;4.30;99.90;;;;;;5031843;28;20064;-69
2022/03/23 05:57:34;;;;;;;63.85;33.53;;;4.30;99.90;;;;;;5030680;28;20131;-69
2022/03/23 06:00:00;;;;;;;74.50;43.25;;;4.30;99.90;;;;;;5030893;28;20067;-69
2022/03/23 06:02:26;;;;;;;69.47;39.63;;;4.30;99.90;;;;;;5030607;28;20037;-69
2022/03/23 06:04:52;;;;;;;50.45;30.33;;;4.40;99.90;;;;;;5029519;28;20036;-69
2022/03/23 06:07:18;;;;;;;92.88;47.97;;;4.40;99.90;;;;;;5030713;28;20045;-69
2022/03/23 06:09:44;;;;;;;87.68;43.55;;;4.40;99.90;;;;;;5030710;28;20053;-69
2022/03/23 06:12:12;;;;;;;50.13;29.23;;;4.40;99.90;;;;;;5035106;28;20033;-69
2022/03/23 06:14:43;;;;;;;54.92;27.60;;;4.40;99.90;;;;;;5051950;28;20102;-69
2022/03/23 06:17:11;;;;;;;45.72;26.52;;;4.40;99.90;;;;;;5087668;28;20044;-69
2022/03/23 06:19:37;;;;;;;46.60;27.73;;;4.40;99.90;;;;;;5088070;28;20517;-69
2022/03/23 06:22:03;;;;;;;48.72;28.58;;;4.40;99.90;;;;;;5054432;28;20087;-69
2022/03/23 06:24:29;;;;;;;63.90;38.72;;;4.40;99.90;;;;;;5088155;28;20059;-69
2022/03/23 06:26:55;;;;;;;77.57;43.55;;;4.60;99.90;;;;;;5055539;28;20044;-69
2022/03/23 06:29:21;;;;;;;81.07;45.22;;;4.80;99.90;;;;;;5087945;28;20102;-69
2022/03/23 06:31:47;;;;;;;93.25;50.92;;;5.10;99.90;;;;;;5088097;28;20087;-69
2022/03/23 06:34:12;;;;;;;84.72;46.67;;;5.40;99.90;;;;;;5055890;28;20041;-69
2022/03/23 06:36:38;;;;;;;79.72;44.78;;;5.60;99.90;;;;;;5053210;28;20029;-70
2022/03/23 06:39:04;;;;;;;74.22;43.92;;;5.80;99.90;;;;;;5054377;28;20528;-69
2022/03/23 06:41:31;;;;;;;67.28;41.17;;;6.00;99.90;;;;;;5055827;28;20060;-70
2022/03/23 06:43:57;;;;;;;62.17;39.22;;;6.20;99.90;;;;;;5054129;28;20056;-69
2022/03/23 06:46:23;;;;;;;59.58;38.53;;;6.30;99.90;;;;;;5055461;28;20037;-69
2022/03/23 06:48:49;;;;;;;66.55;40.45;;;6.40;99.90;;;;;;5055523;28;20041;-69
2022/03/23 06:51:15;;;;;;;68.45;42.20;;;6.40;99.90;;;;;;5055297;28;20065;-70
2022/03/23 06:53:41;;;;;;;68.88;42.25;;;6.60;99.90;;;;;;5053936;28;20041;-70
2022/03/23 06:56:09;;;;;;;65.88;42.10;;;6.70;99.90;;;;;;5053763;28;20041;-70
2022/03/23 06:58:35;;;;;;;66.05;42.17;;;7.00;99.90;;;;;;5039846;28;20564;-70
2022/03/23 07:01:01;;;;;;;62.67;42.45;;;7.10;99.90;;;;;;5055170;28;20041;-69
2022/03/23 07:03:27;;;;;;;70.05;43.33;;;7.20;99.90;;;;;;5055223;28;20119;-70
2022/03/23 07:05:53;;;;;;;71.78;44.17;;;7.40;99.90;;;;;;5051842;28;20450;-70
2022/03/23 07:11:06;;;;;;;74.45;47.08;;;7.50;99.90;;;;;;5054776;28;20505;-68
2022/03/23 07:13:32;;;;;;;73.47;45.05;;;7.50;99.90;;;;;;5054917;28;20081;-70
2022/03/23 07:15:58;;;;;;;74.78;47.30;;;7.60;99.90;;;;;;5054861;28;20112;-70
2022/03/23 07:18:24;;;;;;;72.78;46.78;;;7.60;99.90;;;;;;5053745;28;20502;-70
2022/03/23 07:20:50;;;;;;;67.22;44.08;;;7.70;99.90;;;;;;5053312;28;20547;-69
2022/03/23 07:23:16;;;;;;;66.18;44.53;;;7.80;99.90;;;;;;5053189;28;20061;-69
2022/03/23 07:25:42;;;;;;;69.00;44.88;;;7.80;99.90;;;;;;5054540;28;20048;-69
2022/03/23 07:28:08;;;;;;;70.00;45.15;;;7.90;99.90;;;;;;5053033;28;20095;-69
2022/03/23 07:30:35;;;;;;;65.97;44.53;;;8.00;99.90;;;;;;5054572;28;20114;-70
2022/03/23 07:33:02;;;;;;;66.18;44.47;;;8.10;99.90;;;;;;5036586;28;20083;-70
2022/03/23 07:35:28;;;;;;;64.97;42.05;;;8.40;99.90;;;;;;5052129;28;20039;-69
2022/03/23 07:37:54;;;;;;;70.18;46.28;;;8.60;99.90;;;;;;5054154;28;20117;-69
2022/03/23 07:40:19;;;;;;;63.33;42.78;;;8.70;99.90;;;;;;5053347;28;20055;-69
2022/03/23 07:42:45;;;;;;;65.05;43.35;;;8.90;99.90;;;;;;5053194;28;20041;-69
2022/03/23 07:45:11;;;;;;;64.53;41.88;;;9.10;99.90;;;;;;5054361;28;20401;-70
2022/03/23 07:47:38;;;;;;;69.72;43.67;;;9.30;99.90;;;;;;5054168;28;20493;-70
2022/03/23 07:50:04;;;;;;;62.17;41.95;;;9.50;99.90;;;;;;5036269;28;20055;-69
2022/03/23 07:52:30;;;;;;;60.10;43.25;;;9.70;99.90;;;;;;5052615;28;20041;-70
2022/03/23 07:54:56;;;;;;;61.85;39.53;;;9.90;99.90;;;;;;5054235;28;20040;-70
2022/03/23 07:57:22;;;;;;;57.80;38.70;;;10.10;99.90;;;;;;5054040;28;20040;-70
2022/03/23 07:59:48;;;;;;;51.00;37.17;;;10.40;99.90;;;;;;5052678;28;20056;-69
2022/03/23 08:02:14;;;;;;;51.15;34.83;;;10.70;99.90;;;;;;5052643;28;20052;-69
2022/03/23 08:04:40;;;;;;;53.13;35.92;;;11.00;99.90;;;;;;5033874;28;20041;-72
2022/03/23 08:07:07;;;;;;;50.65;34.13;;;11.30;99.90;;;;;;5054191;28;20045;-70
2022/03/23 08:09:33;;;;;;;47.50;34.58;;;11.70;99.90;;;;;;5054827;28;20139;-69
2022/03/23 08:11:59;;;;;;;43.55;31.38;;;12.10;99.90;;;;;;5054606;28;20541;-70
2022/03/23 08:14:25;;;;;;;48.55;33.45;;;12.40;99.90;;;;;;5054834;28;20029;-70
2022/03/23 08:16:52;;;;;;;43.25;30.58;;;12.70;99.90;;;;;;5053220;28;20473;-70
2022/03/23 08:19:20;;;;;;;45.33;31.35;;;13.00;99.90;;;;;;5054576;28;20047;-70
2022/03/23 08:21:46;;;;;;;42.25;28.95;;;13.40;99.90;;;;;;5086699;28;20037;-70
2022/03/23 08:24:12;;;;;;;42.97;30.67;;;14.00;99.90;;;;;;5054196;28;20115;-70
2022/03/23 08:26:38;;;;;;;40.70;30.13;;;14.50;99.90;;;;;;5054240;28;20049;-70
2022/03/23 08:29:04;;;;;;;40.17;30.25;;;15.00;99.90;;;;;;5069759;28;20049;-70
2022/03/23 08:31:29;;;;;;;41.38;29.65;;;15.60;99.90;;;;;;5052925;28;20048;-70
2022/03/23 08:33:55;;;;;;;38.65;29.25;;;16.10;99.90;;;;;;5054203;28;20099;-70
2022/03/23 08:36:21;;;;;;;35.53;27.10;;;16.50;99.90;;;;;;5051958;28;20045;-70
2022/03/23 08:38:47;;;;;;;36.80;28.55;;;16.90;99.90;;;;;;5053534;28;20098;-70
2022/03/23 08:41:44;;;;;;;36.45;27.73;;;17.10;99.90;;;;;;5051873;28;20568;-70
2022/03/23 08:44:09;;;;;;;35.65;27.15;;;17.30;98.20;;;;;;5054014;28;20099;-71
2022/03/23 08:46:35;;;;;;;35.40;26.05;;;17.60;99.60;;;;;;5049718;28;20065;-71
2022/03/23 08:49:01;;;;;;;30.13;25.58;;;18.00;97.40;;;;;;5036040;28;20041;-71
2022/03/23 08:51:27;;;;;;;34.65;26.60;;;18.50;94.90;;;;;;5036004;28;20040;-71
2022/03/23 08:53:53;;;;;;;32.50;26.25;;;18.80;91.90;;;;;;5052352;28;20184;-71
2022/03/23 08:56:18;;;;;;;35.95;27.40;;;19.20;88.60;;;;;;5052519;28;20402;-71
2022/03/23 08:58:48;;;;;;;33.75;26.55;;;19.50;85.00;;;;;;5052390;28;20116;-70
2022/03/23 09:01:15;;;;;;;33.28;26.67;;;19.80;79.70;;;;;;5052425;28;20055;-70
2022/03/23 09:03:42;;;;;;;33.53;28.13;;;19.80;73.10;;;;;;5053556;28;20179;-70
2022/03/23 09:06:09;;;;;;;33.85;26.65;;;19.90;71.40;;;;;;5050222;28;20037;-71
2022/03/23 09:08:35;;;;;;;36.47;28.52;;;20.00;71.00;;;;;;5053775;28;20343;-71
2022/03/23 09:11:01;;;;;;;32.97;27.00;;;20.30;70.40;;;;;;5052154;28;20037;-71
2022/03/23 09:13:27;;;;;;;33.03;27.23;;;20.50;68.00;;;;;;5053081;28;20041;-70
2022/03/23 09:15:53;;;;;;;32.22;26.75;;;20.60;66.10;;;;;;5052412;28;20029;-70
2022/03/23 09:18:19;;;;;;;30.60;24.25;;;20.70;62.20;;;;;;5052442;28;20103;-71
2022/03/23 09:20:45;;;;;;;34.38;27.42;;;20.80;62.50;;;;;;5052373;28;20037;-71
2022/03/23 09:23:12;;;;;;;31.63;27.00;;;21.00;61.70;;;;;;5085377;28;20061;-71
2022/03/23 09:25:40;;;;;;;32.45;25.65;;;21.20;60.90;;;;;;5053311;28;20049;-71
2022/03/23 09:28:05;;;;;;;31.95;25.48;;;21.30;56.50;;;;;;5051964;28;20047;-70
2022/03/23 09:30:31;;;;;;;30.75;25.73;;;21.40;56.70;;;;;;5085566;28;20125;-71
2022/03/23 09:32:57;;;;;;;30.60;25.65;;;21.50;56.80;;;;;;5051939;28;20041;-71
2022/03/23 09:35:23;;;;;;;32.05;26.67;;;21.70;57.40;;;;;;5052368;28;20115;-71
2022/03/23 09:37:49;;;;;;;31.55;24.42;;;22.00;56.10;;;;;;5085330;28;20089;-70
2022/03/23 09:40:20;;;;;;;29.50;25.27;;;22.10;51.40;;;;;;5085639;28;20032;-71
2022/03/23 09:42:48;;;;;;;31.20;26.95;;;22.20;51.10;;;;;;5051860;28;20045;-71
2022/03/23 09:45:28;;;;;;;26.52;23.55;;;22.40;52.20;;;;;;5052992;28;20119;-69
2022/03/23 09:47:55;;;;;;;30.80;25.02;;;22.70;50.20;;;;;;5053134;28;20123;-69
2022/03/23 09:50:21;;;;;;;27.40;22.75;;;22.90;50.30;;;;;;5052936;28;20112;-70
2022/03/23 09:52:47;;;;;;;31.10;25.70;;;23.00;47.50;;;;;;5052734;28;20047;-70
2022/03/23 09:55:13;;;;;;;33.35;25.83;;;23.00;47.90;;;;;;5051586;28;20040;-70
2022/03/23 09:57:38;;;;;;;29.08;24.25;;;23.10;47.00;;;;;;5085361;28;20124;-70
2022/03/23 10:00:10;;;;;;;28.90;24.52;;;23.10;46.60;;;;;;5051476;28;20116;-69
2022/03/23 10:02:39;;;;;;;28.85;24.92;;;23.10;45.80;;;;;;5056700;28;20044;-70
2022/03/23 10:05:45;;;;;;;27.98;24.95;;;23.10;47.20;;;;;;5083269;28;20424;-70
2022/03/23 10:08:49;;;;;;;32.28;23.58;;;23.40;48.10;;;;;;5068424;28;20044;-70
2022/03/23 10:11:52;;;;;;;25.98;23.08;;;23.90;47.40;;;;;;5052809;28;20045;-70
2022/03/23 10:14:30;;;;;;;24.02;20.98;;;24.10;43.90;;;;;;5031613;28;20092;-70
2022/03/23 10:17:33;;;;;;;25.50;20.98;;;24.00;42.20;;;;;;5032768;28;20071;-70
2022/03/23 10:20:01;;;;;;;23.77;21.10;;;23.80;42.50;;;;;;5031569;28;20088;-71
2022/03/23 10:22:28;;;;;;;28.98;22.05;;;23.90;44.30;;;;;;5031544;28;20053;-71
2022/03/23 10:24:55;;;;;;;26.70;21.80;;;24.20;44.40;;;;;;5064683;28;20060;-72
2022/03/23 10:27:23;;;;;;;26.33;19.00;;;24.50;45.00;;;;;;5033052;28;20041;-71
2022/03/23 10:29:54;;;;;;;22.05;18.33;;;24.60;44.20;;;;;;5031361;28;20567;-73
2022/03/23 10:32:23;;;;;;;25.17;18.52;;;24.80;43.00;;;;;;5064645;28;20498;-71
2022/03/23 10:34:50;;;;;;;21.15;17.85;;;24.90;41.60;;;;;;5030425;28;20043;-71
2022/03/23 10:37:43;;;;;;;22.25;19.50;;;25.00;41.40;;;;;;5031349;28;20042;-71
2022/03/23 10:40:13;;;;;;;22.45;17.40;;;25.10;41.70;;;;;;5046210;28;20482;-71
2022/03/23 10:42:44;;;;;;;23.45;18.15;;;25.20;39.20;;;;;;5032613;28;20052;-71
2022/03/23 10:45:17;;;;;;;24.42;18.00;;;25.20;37.30;;;;;;5032571;28;20033;-71
2022/03/23 10:47:44;;;;;;;23.38;16.85;;;25.50;38.50;;;;;;5031135;28;20042;-70
2022/03/23 10:50:16;;;;;;;21.55;15.32;;;25.60;36.50;;;;;;5031159;28;20180;-71
2022/03/23 10:53:04;;;;;;;17.80;15.65;;;25.70;37.10;;;;;;5032629;28;20425;-71
2022/03/23 10:55:49;;;;;;;23.38;13.82;;;25.70;39.40;;;;;;5032443;28;20048;-71
2022/03/23 10:58:20;;;;;;;19.90;11.55;;;25.80;38.30;;;;;;5031031;28;20045;-73
2022/03/23 11:00:45;;;;;;;21.10;11.73;;;25.80;35.60;;;;;;5032606;28;20034;-72
2022/03/23 11:03:11;;;;;;;18.77;13.73;;;25.80;37.10;;;;;;5034080;28;20500;-72
2022/03/23 11:05:40;;;;;;;20.33;13.82;;;25.70;36.20;;;;;;5065981;28;20049;-73
2022/03/23 11:08:10;;;;;;;24.67;13.15;;;25.70;35.00;;;;;;5067910;28;20045;-71
2022/03/23 11:16:27;;;;;;;22.88;9.05;;;25.40;33.30;;;;;;5055767;28;20473;-70
2022/03/23 11:19:08;;;;;;;24.00;10.88;;;25.60;34.40;;;;;;5054235;28;20123;-72
2022/03/23 11:21:57;;;;;;;23.60;10.57;;;25.70;34.10;;;;;;5054720;28;20397;-71
2022/03/23 11:24:24;;;;;;;20.13;10.38;;;26.00;36.60;;;;;;5054149;28;20052;-71
2022/03/23 11:26:51;;;;;;;16.50;10.35;;;26.00;34.20;;;;;;5054633;28;20389;-70
2022/03/23 11:29:20;;;;;;;23.70;11.63;;;26.10;34.50;;;;;;5051466;28;20045;-70
2022/03/23 11:31:46;;;;;;;21.45;11.50;;;26.20;36.00;;;;;;5054398;28;20033;-71
2022/03/23 11:34:17;;;;;;;28.52;12.70;;;26.30;36.00;;;;;;5054449;28;20049;-70
2022/03/23 11:36:43;;;;;;;20.60;12.57;;;26.30;35.30;;;;;;5052084;28;20041;-72
2022/03/23 11:39:11;;;;;;;18.52;12.68;;;26.50;35.70;;;;;;5054030;28;20047;-71
2022/03/23 11:41:38;;;;;;;21.58;12.50;;;26.50;34.60;;;;;;5054042;28;20154;-71
2022/03/23 11:44:04;;;;;;;21.85;11.90;;;26.40;34.50;;;;;;5054105;28;20048;-70
2022/03/23 11:46:30;;;;;;;17.63;12.48;;;26.40;34.20;;;;;;5053818;28;20456;-71
2022/03/23 11:49:20;;;;;;;19.58;11.32;;;26.50;34.30;;;;;;5054028;28;20440;-70
2022/03/23 11:52:20;;;;;;;16.65;9.85;;;26.50;34.00;;;;;;5053939;28;20037;-72
2022/03/23 11:57:58;;;;;;;23.08;12.55;;;26.00;34.90;;;;;;5053660;28;20040;-71
2022/03/23 12:00:26;;;;;;;19.95;11.80;;;25.70;35.50;;;;;;5053656;28;20103;-71
2022/03/23 12:02:53;;;;;;;23.55;12.98;;;25.60;34.50;;;;;;5053601;28;20044;-70
2022/03/23 12:05:30;;;;;;;21.10;13.00;;;25.50;33.00;;;;;;5052814;28;20041;-70
2022/03/23 12:07:56;;;;;;;23.85;12.88;;;25.20;32.90;;;;;;5053555;28;20521;-70
2022/03/23 12:10:24;;;;;;;20.17;12.02;;;24.80;34.30;;;;;;5054778;28;20381;-70
2022/03/23 12:12:50;;;;;;;29.70;13.02;;;24.20;35.70;;;;;;5053362;28;20037;-70
2022/03/23 12:15:19;;;;;;;19.20;11.75;;;24.30;36.90;;;;;;5054558;28;20041;-71
2022/03/23 12:17:54;;;;;;;19.90;11.90;;;24.60;35.60;;;;;;5054938;28;20033;-70
2022/03/23 12:20:33;;;;;;;23.92;11.70;;;24.80;34.60;;;;;;5086858;28;20075;-70
2022/03/23 12:23:06;;;;;;;;;;;24.90;35.10;;;;;;5053783;28;20132;-70
2022/03/23 12:25:47;;;;;;;17.25;9.30;;;25.20;38.60;;;;;;5086645;28;19955;-70
2022/03/23 12:28:51;;;;;;;17.58;7.47;;;25.20;36.70;;;;;;5054686;28;20049;-69
2022/03/23 12:31:17;;;;;;;12.93;8.30;;;24.90;34.30;;;;;;5036436;28;20049;-69
2022/03/23 12:34:14;;;;;;;16.23;8.75;;;24.60;33.70;;;;;;5052966;28;20041;-69
2022/03/23 12:36:57;;;;;;;19.63;10.35;;;24.50;35.90;;;;;;5050895;28;20493;-69
2022/03/23 12:39:30;;;;;;;21.77;10.77;;;24.60;35.10;;;;;;5051918;28;20048;-69
2022/03/23 12:42:12;;;;;;;20.83;10.77;;;24.80;35.40;;;;;;5051542;28;20037;-69
2022/03/23 12:44:40;;;;;;;18.73;12.10;;;25.00;35.40;;;;;;5043724;28;20077;-69
2022/03/23 12:47:14;;;;;;;19.85;11.45;;;25.10;35.20;;;;;;5052600;28;20116;-70
2022/03/23 12:58:17;;;;;;;17.48;10.55;;;24.90;34.70;;;;;;5052065;28;20460;-70
2022/03/23 13:00:45;;;;;;;22.02;10.93;;;24.80;34.80;;;;;;5052238;28;20080;-69
2022/03/23 13:03:10;;;;;;;16.20;9.73;;;24.80;34.80;;;;;;5053609;28;20037;-69
2022/03/23 13:05:59;;;;;;;18.50;9.63;;;24.70;33.70;;;;;;5050137;28;20049;-70
2022/03/23 13:08:32;;;;;;;20.95;10.38;;;24.50;34.70;;;;;;5045836;28;20052;-69